Time;durP1;ratioP1;P1;durP2;ratioP2;P2;SDS_P1;SDS_P2;PMS_P1;PMS_P2;Temp;Humidity;BMP_temperature;BMP_pressure;BME280_temperature;BME280_humidity;BME280_pressure;Samples;Min_cycle;Max_cycle;Signal;HPM_P1;HPM_P2
2022/07/13 00:01:17;;;;;;;12.17;5.30;;;18.60;88.20;;;;;;5044250;28;20205;-71
2022/07/13 00:03:42;;;;;;;13.77;6.40;;;18.70;88.70;;;;;;5045806;28;20288;-72
2022/07/13 00:06:08;;;;;;;9.83;4.87;;;18.70;89.20;;;;;;5043538;28;20249;-72
2022/07/13 00:08:33;;;;;;;13.50;6.20;;;18.70;90.80;;;;;;5044199;28;20214;-69
2022/07/13 00:10:59;;;;;;;13.77;5.93;;;18.60;90.90;;;;;;5041759;28;20202;-70
2022/07/13 00:13:25;;;;;;;14.67;5.97;;;18.50;92.00;;;;;;5045012;28;20203;-70
2022/07/13 00:15:51;;;;;;;14.73;6.10;;;18.40;92.70;;;;;;5042192;28;20225;-70
2022/07/13 00:18:16;;;;;;;11.47;5.83;;;18.30;93.00;;;;;;5045270;28;20283;-70
2022/07/13 00:20:42;;;;;;;11.33;5.63;;;18.30;93.40;;;;;;5042465;28;20209;-71
2022/07/13 00:23:08;;;;;;;11.53;5.60;;;18.30;93.50;;;;;;5044903;28;20188;-70
2022/07/13 00:25:33;;;;;;;9.10;4.63;;;18.30;93.90;;;;;;5042361;28;20737;-70
2022/07/13 00:27:59;;;;;;;13.27;5.30;;;18.30;94.50;;;;;;5045029;28;20210;-72
2022/07/13 00:30:24;;;;;;;9.87;5.03;;;18.30;94.50;;;;;;5043094;28;20231;-73
2022/07/13 00:32:50;;;;;;;11.33;5.17;;;18.40;95.80;;;;;;5045882;28;20249;-72
2022/07/13 00:35:15;;;;;;;35.13;13.77;;;18.40;95.50;;;;;;5043309;28;20209;-73
2022/07/13 00:37:43;;;;;;;11.10;5.20;;;18.40;95.70;;;;;;5045409;28;20182;-72
2022/07/13 00:40:09;;;;;;;11.13;5.53;;;18.40;96.20;;;;;;5043267;28;20201;-71
2022/07/13 00:42:34;;;;;;;12.60;5.53;;;18.40;97.20;;;;;;5045528;28;20274;-71
2022/07/13 00:45:00;;;;;;;12.43;5.97;;;18.40;96.90;;;;;;5027333;28;20338;-72
2022/07/13 00:47:31;;;;;;;8.13;4.37;;;18.40;97.90;;;;;;5043669;28;20208;-71
2022/07/13 00:49:59;;;;;;;9.83;4.77;;;18.40;97.30;;;;;;5034715;28;20694;-72
2022/07/13 00:52:25;;;;;;;9.77;4.70;;;18.40;96.30;;;;;;5043066;28;20250;-73
2022/07/13 00:54:50;;;;;;;15.33;6.17;;;18.50;95.90;;;;;;5045151;28;20845;-72
2022/07/13 00:57:16;;;;;;;13.50;5.33;;;18.60;95.60;;;;;;5043247;28;20280;-71
2022/07/13 00:59:42;;;;;;;9.90;4.47;;;18.60;95.60;;;;;;5044949;28;20192;-71
2022/07/13 01:02:08;;;;;;;11.80;5.37;;;18.70;96.10;;;;;;5043489;28;20574;-72
2022/07/13 01:04:33;;;;;;;13.20;5.83;;;18.70;96.40;;;;;;5044893;28;20188;-71
2022/07/13 01:07:00;;;;;;;13.03;5.63;;;18.70;97.30;;;;;;5042585;28;20785;-72
2022/07/13 01:09:26;;;;;;;10.63;5.33;;;18.70;96.50;;;;;;5044639;28;20287;-71
2022/07/13 01:11:53;;;;;;;10.60;5.00;;;18.80;96.70;;;;;;5025061;28;20213;-71
2022/07/13 01:14:18;;;;;;;12.33;5.63;;;18.70;96.30;;;;;;5044858;28;20281;-72
2022/07/13 01:16:44;;;;;;;13.10;5.63;;;18.80;97.00;;;;;;5042726;28;20199;-72
2022/07/13 01:19:12;;;;;;;9.77;4.83;;;18.80;96.50;;;;;;5044642;28;20878;-71
2022/07/13 01:21:44;;;;;;;8.50;4.60;;;18.80;96.70;;;;;;5041897;28;20687;-72
2022/07/13 01:24:11;;;;;;;9.87;4.60;;;18.90;96.30;;;;;;5031939;28;20192;-73
2022/07/13 01:26:38;;;;;;;8.27;4.17;;;18.80;96.90;;;;;;5043000;28;20702;-72
2022/07/13 01:29:05;;;;;;;8.40;4.07;;;18.70;97.50;;;;;;5044794;28;20648;-73
2022/07/13 01:31:36;;;;;;;10.77;4.47;;;18.70;97.60;;;;;;5042848;28;20212;-72
2022/07/13 01:34:02;;;;;;;10.57;4.80;;;18.70;98.20;;;;;;5044578;28;20216;-73
2022/07/13 01:36:28;;;;;;;9.50;4.73;;;18.90;96.70;;;;;;5044927;28;20199;-73
2022/07/13 01:38:55;;;;;;;7.67;4.03;;;19.20;95.70;;;;;;5049078;28;20562;-72
2022/07/13 01:41:21;;;;;;;9.77;4.97;;;19.10;96.30;;;;;;5038661;28;20629;-72
2022/07/13 01:43:49;;;;;;;12.77;5.33;;;19.10;96.40;;;;;;5048853;28;20193;-71
2022/07/13 01:46:15;;;;;;;8.27;4.43;;;18.90;96.90;;;;;;5046750;28;20202;-72
2022/07/13 01:48:40;;;;;;;7.77;4.33;;;18.70;97.80;;;;;;5049100;28;20205;-74
2022/07/13 01:51:06;;;;;;;7.83;4.00;;;18.60;97.90;;;;;;5046671;28;20266;-72
2022/07/13 01:53:32;;;;;;;15.77;5.43;;;18.60;98.20;;;;;;5048527;28;20630;-73
2022/07/13 01:56:00;;;;;;;12.27;4.47;;;18.70;98.50;;;;;;5046564;28;20685;-73
2022/07/13 01:58:26;;;;;;;12.83;4.87;;;18.80;98.00;;;;;;5048730;28;20299;-71
2022/07/13 02:00:52;;;;;;;10.03;4.70;;;19.00;97.80;;;;;;5046587;28;20620;-72
2022/07/13 02:03:19;;;;;;;12.73;5.33;;;18.90;98.00;;;;;;5048684;28;20190;-74
2022/07/13 02:05:45;;;;;;;9.70;4.70;;;18.90;98.00;;;;;;5046168;28;20212;-72
2022/07/13 02:08:11;;;;;;;12.73;5.07;;;18.90;98.10;;;;;;5048569;28;20215;-73
2022/07/13 02:10:37;;;;;;;32.50;13.77;;;18.70;98.70;;;;;;5046342;28;20735;-72
2022/07/13 02:13:13;;;;;;;13.07;6.17;;;18.60;99.30;;;;;;5048507;28;20209;-72
2022/07/13 02:15:40;;;;;;;28.47;12.20;;;18.50;99.90;;;;;;5035588;28;20217;-76
2022/07/13 02:18:06;;;;;;;11.17;5.17;;;18.30;99.90;;;;;;5043358;28;20891;-70
2022/07/13 02:20:32;;;;;;;29.13;13.60;;;18.20;99.90;;;;;;5045941;28;20888;-69
2022/07/13 02:22:57;;;;;;;11.67;5.43;;;18.10;99.90;;;;;;5048401;28;20183;-70
2022/07/13 02:25:23;;;;;;;8.67;4.50;;;18.10;99.90;;;;;;5047980;28;20209;-69
2022/07/13 02:27:49;;;;;;;12.83;5.43;;;18.30;99.90;;;;;;5046040;28;20209;-69
2022/07/13 02:30:15;;;;;;;11.00;5.40;;;18.60;99.90;;;;;;5047948;28;20207;-69
2022/07/13 02:32:43;;;;;;;10.47;5.50;;;18.60;99.90;;;;;;5045015;28;20241;-69
2022/07/13 02:35:09;;;;;;;11.43;5.37;;;18.70;99.90;;;;;;5048331;28;20216;-69
2022/07/13 02:37:35;;;;;;;10.43;4.40;;;18.60;99.90;;;;;;5046229;28;20208;-69
2022/07/13 02:40:01;;;;;;;9.30;5.37;;;18.60;99.90;;;;;;5047110;28;20215;-68
2022/07/13 02:42:27;;;;;;;8.23;4.43;;;18.40;99.90;;;;;;5045671;28;20738;-68
2022/07/13 02:44:53;;;;;;;9.70;5.00;;;18.40;99.90;;;;;;5047582;28;20204;-68
2022/07/13 02:47:19;;;;;;;7.70;4.37;;;18.50;99.90;;;;;;5044544;28;20306;-68
2022/07/13 02:49:45;;;;;;;9.80;4.60;;;18.30;99.90;;;;;;5047564;28;20303;-68
2022/07/13 02:52:11;;;;;;;9.77;4.90;;;18.20;99.90;;;;;;5045939;28;20215;-69
2022/07/13 02:54:36;;;;;;;7.73;4.50;;;18.30;99.90;;;;;;5047447;28;20693;-69
2022/07/13 02:57:02;;;;;;;7.97;4.67;;;18.20;99.90;;;;;;5045826;28;20197;-70
2022/07/13 02:59:32;;;;;;;9.40;5.30;;;18.20;99.90;;;;;;5047049;28;20215;-69
2022/07/13 03:01:57;;;;;;;9.80;5.90;;;18.30;99.90;;;;;;5045470;28;20214;-70
2022/07/13 03:04:23;;;;;;;10.63;4.57;;;18.20;99.90;;;;;;5047157;28;20562;-70
2022/07/13 03:06:48;;;;;;;10.43;5.70;;;18.20;99.90;;;;;;5045215;28;20747;-69
2022/07/13 03:09:13;;;;;;;8.20;4.63;;;18.10;99.90;;;;;;5047248;28;20194;-69
2022/07/13 03:11:39;;;;;;;9.63;4.97;;;18.10;99.90;;;;;;5045248;28;20586;-69
2022/07/13 03:14:05;;;;;;;7.17;4.50;;;18.10;99.90;;;;;;5046970;28;20203;-68
2022/07/13 03:16:30;;;;;;;9.50;5.60;;;18.10;99.90;;;;;;5044686;28;20643;-69
2022/07/13 03:18:56;;;;;;;7.87;4.63;;;18.10;99.90;;;;;;5047431;28;20187;-70
2022/07/13 03:21:21;;;;;;;7.93;4.77;;;18.10;99.90;;;;;;5045169;28;20187;-69
2022/07/13 03:23:47;;;;;;;10.93;4.80;;;18.20;99.90;;;;;;5047073;28;20219;-69
2022/07/13 03:26:12;;;;;;;5.63;3.83;;;18.10;99.90;;;;;;5045142;28;20682;-70
2022/07/13 03:28:38;;;;;;;6.30;4.03;;;18.10;99.90;;;;;;5047018;28;20195;-68
2022/07/13 03:31:03;;;;;;;8.47;5.23;;;18.20;99.90;;;;;;5044853;28;20197;-69
2022/07/13 03:33:29;;;;;;;11.97;4.00;;;18.50;99.90;;;;;;5047025;28;20539;-68
2022/07/13 03:35:54;;;;;;;26.13;12.67;;;18.70;99.90;;;;;;5044958;28;20314;-69
2022/07/13 03:38:20;;;;;;;7.17;3.93;;;18.60;99.90;;;;;;5047047;28;20620;-68
2022/07/13 03:40:47;;;;;;;12.27;6.27;;;18.50;99.90;;;;;;5044392;28;20219;-68
2022/07/13 03:43:13;;;;;;;10.80;5.10;;;18.40;99.90;;;;;;5034469;28;20186;-69
2022/07/13 03:45:38;;;;;;;9.03;4.97;;;18.30;99.90;;;;;;5046676;28;20212;-69
2022/07/13 03:48:05;;;;;;;9.20;5.00;;;18.30;99.90;;;;;;5044782;28;20246;-69
2022/07/13 03:50:31;;;;;;;8.23;4.57;;;18.30;99.90;;;;;;5046595;28;20269;-68
2022/07/13 03:52:56;;;;;;;8.70;4.27;;;18.30;99.90;;;;;;5044575;28;20758;-70
2022/07/13 03:55:22;;;;;;;8.23;4.77;;;18.30;99.90;;;;;;5046669;28;20573;-68
2022/07/13 03:57:47;;;;;;;12.37;5.23;;;18.30;99.90;;;;;;5044460;28;20213;-69
2022/07/13 04:00:13;;;;;;;9.73;6.37;;;18.30;99.90;;;;;;5045664;28;20192;-68
2022/07/13 04:02:39;;;;;;;9.53;5.13;;;18.30;99.90;;;;;;5044501;28;20239;-69
2022/07/13 04:05:05;;;;;;;7.30;4.20;;;18.30;99.90;;;;;;5046649;28;20197;-69
2022/07/13 04:07:31;;;;;;;8.60;4.90;;;18.30;99.90;;;;;;5044627;28;20238;-69
2022/07/13 04:09:56;;;;;;;10.90;5.43;;;18.40;99.90;;;;;;5046291;28;20192;-69
2022/07/13 04:12:22;;;;;;;8.23;4.03;;;18.80;99.90;;;;;;5044156;28;20220;-68
2022/07/13 04:14:48;;;;;;;7.90;4.30;;;18.70;99.90;;;;;;5046290;28;20264;-69
2022/07/13 04:17:14;;;;;;;11.97;6.43;;;18.60;99.90;;;;;;5044041;28;20197;-69
2022/07/13 04:19:39;;;;;;;9.60;5.90;;;18.60;99.90;;;;;;5045957;28;20203;-70
2022/07/13 04:22:05;;;;;;;12.73;5.60;;;18.60;99.90;;;;;;5043723;28;20220;-70
2022/07/13 04:24:30;;;;;;;7.33;4.53;;;18.60;99.90;;;;;;5045976;28;20663;-70
2022/07/13 04:26:56;;;;;;;11.10;4.77;;;18.60;99.90;;;;;;5044265;28;20759;-68
2022/07/13 04:29:21;;;;;;;10.90;5.80;;;18.60;99.90;;;;;;5045944;28;20190;-74
2022/07/13 04:31:47;;;;;;;10.03;5.33;;;18.60;99.90;;;;;;5043790;28;20209;-71
2022/07/13 04:34:12;;;;;;;7.83;4.03;;;18.80;99.90;;;;;;5045689;28;20210;-71
2022/07/13 04:36:41;;;;;;;10.43;5.87;;;18.90;99.90;;;;;;5044001;28;20218;-70
2022/07/13 04:39:07;;;;;;;8.53;5.03;;;19.00;99.90;;;;;;5045615;28;20226;-76
2022/07/13 04:41:32;;;;;;;11.60;6.30;;;19.20;99.90;;;;;;5043459;28;20193;-68
2022/07/13 04:43:57;;;;;;;9.97;5.13;;;19.10;99.90;;;;;;5045611;28;20192;-68
2022/07/13 04:46:25;;;;;;;9.60;4.90;;;19.30;99.90;;;;;;5043674;28;20299;-69
2022/07/13 04:48:50;;;;;;;8.77;5.23;;;19.40;99.90;;;;;;5045566;28;20214;-69
2022/07/13 04:51:16;;;;;;;35.73;15.00;;;19.40;99.90;;;;;;5043261;28;20202;-68
2022/07/13 04:53:41;;;;;;;9.20;5.20;;;19.60;99.90;;;;;;5045434;28;20232;-69
2022/07/13 04:56:07;;;;;;;16.03;9.37;;;19.70;99.90;;;;;;5043273;28;20658;-69
2022/07/13 04:58:32;;;;;;;9.20;4.77;;;19.80;99.90;;;;;;5045177;28;20239;-69
2022/07/13 05:01:00;;;;;;;7.00;4.73;;;19.90;99.90;;;;;;5045070;28;20288;-69
2022/07/13 05:03:26;;;;;;;4.73;3.67;;;19.80;99.90;;;;;;5034690;28;20284;-68
2022/07/13 05:05:51;;;;;;;7.70;4.10;;;19.80;99.90;;;;;;5044796;28;20664;-69
2022/07/13 05:08:17;;;;;;;6.47;3.80;;;19.90;99.90;;;;;;5044076;28;20288;-69
2022/07/13 05:10:42;;;;;;;9.40;5.03;;;19.90;99.90;;;;;;5044184;28;20679;-67
2022/07/13 05:13:08;;;;;;;8.63;4.70;;;19.90;99.90;;;;;;5043137;28;20266;-69
2022/07/13 05:15:33;;;;;;;7.73;4.53;;;19.90;99.90;;;;;;5044674;28;20237;-69
2022/07/13 05:17:59;;;;;;;6.50;4.07;;;20.10;99.90;;;;;;5043344;28;20289;-69
2022/07/13 05:20:24;;;;;;;6.90;4.20;;;20.10;99.90;;;;;;5044952;28;20197;-69
2022/07/13 05:22:50;;;;;;;90.70;58.90;;;20.00;99.90;;;;;;5043176;28;20190;-69
2022/07/13 05:25:15;;;;;;;19.43;14.47;;;20.10;99.90;;;;;;5045153;28;20612;-69
2022/07/13 05:27:41;;;;;;;8.60;5.60;;;20.10;99.90;;;;;;5033006;28;20209;-68
2022/07/13 05:30:07;;;;;;;7.27;4.97;;;19.90;99.90;;;;;;5044906;28;20280;-70
2022/07/13 05:32:32;;;;;;;11.13;4.77;;;19.90;99.90;;;;;;5043090;28;20754;-69
2022/07/13 05:34:58;;;;;;;7.53;4.90;;;19.80;99.90;;;;;;5044902;28;20215;-71
2022/07/13 05:37:23;;;;;;;7.17;4.83;;;19.90;99.90;;;;;;5042934;28;20194;-70
2022/07/13 05:39:49;;;;;;;7.43;4.87;;;20.20;99.90;;;;;;5044818;28;20202;-69
2022/07/13 05:42:14;;;;;;;9.87;5.13;;;20.20;99.90;;;;;;5042885;28;20200;-71
2022/07/13 05:44:40;;;;;;;7.03;4.33;;;20.30;99.90;;;;;;5044863;28;20285;-69
2022/07/13 05:47:06;;;;;;;9.13;5.53;;;20.20;99.90;;;;;;5042660;28;20218;-69
2022/07/13 05:49:31;;;;;;;7.73;4.97;;;20.10;99.90;;;;;;5044735;28;20208;-70
2022/07/13 05:51:57;;;;;;;7.60;4.53;;;20.30;99.90;;;;;;5042947;28;20288;-70
2022/07/13 05:54:22;;;;;;;7.13;4.17;;;20.30;99.90;;;;;;5044985;28;20196;-70
2022/07/13 05:56:48;;;;;;;9.30;4.63;;;20.20;99.90;;;;;;5042696;28;20279;-70
2022/07/13 05:59:14;;;;;;;9.33;5.13;;;20.60;99.90;;;;;;5045221;28;20273;-70
2022/07/13 06:01:39;;;;;;;10.93;5.43;;;20.70;99.90;;;;;;5042506;28;20199;-69
2022/07/13 06:04:05;;;;;;;10.00;5.00;;;20.80;99.90;;;;;;5044937;28;20205;-67
2022/07/13 06:06:31;;;;;;;36.03;15.27;;;20.90;99.90;;;;;;5042504;28;20316;-69
2022/07/13 06:08:56;;;;;;;13.50;5.40;;;21.00;99.90;;;;;;5044645;28;20589;-69
2022/07/13 06:11:22;;;;;;;20.27;10.77;;;21.20;99.90;;;;;;5024454;28;20198;-69
2022/07/13 06:13:47;;;;;;;10.83;4.77;;;21.30;99.90;;;;;;5045109;28;20715;-71
2022/07/13 06:16:13;;;;;;;8.73;4.83;;;21.00;99.90;;;;;;5043838;28;20215;-69
2022/07/13 06:18:38;;;;;;;9.53;5.33;;;20.90;99.90;;;;;;5042627;28;20226;-68
2022/07/13 06:21:04;;;;;;;6.73;4.10;;;20.80;99.90;;;;;;5044656;28;20225;-71
2022/07/13 06:23:30;;;;;;;7.60;4.33;;;20.60;99.90;;;;;;5045970;28;20255;-70
2022/07/13 06:25:55;;;;;;;8.17;5.03;;;20.50;99.90;;;;;;5048133;28;20290;-70
2022/07/13 06:28:21;;;;;;;7.93;4.33;;;20.60;99.90;;;;;;5028122;28;20205;-68
2022/07/13 06:30:46;;;;;;;8.97;4.80;;;20.80;99.90;;;;;;5047868;28;20938;-68
2022/07/13 06:33:12;;;;;;;11.60;6.00;;;21.00;99.90;;;;;;5046234;28;20220;-69
2022/07/13 06:35:37;;;;;;;13.13;5.73;;;21.20;99.90;;;;;;5047712;28;20794;-69
2022/07/13 06:38:03;;;;;;;10.47;5.17;;;21.50;99.90;;;;;;5046001;28;20206;-69
2022/07/13 06:40:29;;;;;;;10.57;5.63;;;21.80;99.90;;;;;;5047644;28;20595;-69
2022/07/13 06:42:54;;;;;;;13.93;6.33;;;21.80;99.90;;;;;;5046177;28;20214;-69
2022/07/13 06:45:22;;;;;;;12.37;5.20;;;21.90;99.90;;;;;;5048119;28;20220;-69
2022/07/13 06:47:48;;;;;;;12.47;7.57;;;22.00;99.90;;;;;;5045781;28;20247;-68
2022/07/13 06:50:16;;;;;;;12.70;5.60;;;22.20;99.90;;;;;;5047213;28;20289;-69
2022/07/13 06:52:44;;;;;;;9.97;5.67;;;22.30;99.90;;;;;;5045191;28;20222;-69
2022/07/13 06:55:11;;;;;;;9.60;4.93;;;22.20;99.90;;;;;;5047342;28;20215;-69
2022/07/13 06:57:37;;;;;;;9.87;6.20;;;22.30;99.90;;;;;;5045324;28;20619;-67
2022/07/13 07:00:06;;;;;;;7.80;4.57;;;22.40;99.90;;;;;;5047082;28;20286;-68
2022/07/13 07:02:32;;;;;;;8.80;4.40;;;22.70;99.90;;;;;;5045297;28;20206;-68
2022/07/13 07:04:58;;;;;;;7.80;4.93;;;22.90;99.80;;;;;;5047744;28;20546;-69
2022/07/13 07:07:23;;;;;;;11.07;5.83;;;23.10;99.20;;;;;;5044722;28;20906;-70
2022/07/13 07:09:49;;;;;;;8.90;4.57;;;23.30;98.90;;;;;;5046906;28;20289;-77
2022/07/13 07:12:16;;;;;;;7.07;4.50;;;23.30;98.80;;;;;;5045057;28;20545;-71
2022/07/13 07:14:44;;;;;;;12.00;5.90;;;23.40;98.30;;;;;;5034569;28;20211;-68
2022/07/13 07:17:13;;;;;;;5.68;3.97;;;23.40;98.00;;;;;;5044855;28;20195;-69
2022/07/13 07:19:39;;;;;;;13.40;4.83;;;23.70;97.80;;;;;;5025922;28;20202;-70
2022/07/13 07:22:04;;;;;;;7.57;4.67;;;23.70;97.70;;;;;;5044452;28;20207;-69
2022/07/13 07:24:31;;;;;;;10.97;5.37;;;23.70;97.70;;;;;;5046861;28;20560;-68
2022/07/13 07:26:56;;;;;;;8.32;5.22;;;23.80;97.50;;;;;;5044601;28;20721;-68
2022/07/13 07:29:22;;;;;;;7.00;4.57;;;23.70;97.50;;;;;;5047200;28;20182;-69
2022/07/13 07:31:48;;;;;;;27.50;12.57;;;23.60;97.20;;;;;;5044353;28;20213;-70
2022/07/13 07:34:13;;;;;;;9.35;4.78;;;23.60;97.20;;;;;;5046280;28;20190;-69
2022/07/13 07:36:40;;;;;;;22.85;12.00;;;23.70;96.90;;;;;;5044766;28;20194;-70
2022/07/13 07:39:06;;;;;;;7.10;4.23;;;23.80;97.10;;;;;;5046861;28;20258;-70
2022/07/13 07:41:32;;;;;;;7.45;4.63;;;23.90;96.60;;;;;;5046802;28;20187;-70
2022/07/13 07:43:59;;;;;;;8.50;5.27;;;24.20;96.50;;;;;;5045359;28;20225;-69
2022/07/13 07:46:24;;;;;;;8.02;4.35;;;24.20;96.20;;;;;;5046304;28;20201;-70
2022/07/13 07:48:50;;;;;;;9.68;6.32;;;24.00;96.00;;;;;;5043918;28;20203;-69
2022/07/13 07:51:15;;;;;;;8.27;4.70;;;24.00;96.10;;;;;;5046460;28;20771;-70
2022/07/13 07:53:41;;;;;;;10.18;4.57;;;23.90;95.80;;;;;;5044539;28;20223;-69
2022/07/13 07:56:06;;;;;;;5.60;4.13;;;24.10;95.20;;;;;;5046127;28;20290;-70
2022/07/13 07:58:32;;;;;;;5.05;3.88;;;24.20;94.80;;;;;;5044097;28;20559;-70
2022/07/13 08:00:57;;;;;;;5.53;4.27;;;24.40;93.80;;;;;;5045602;28;20215;-67
2022/07/13 08:03:23;;;;;;;5.27;3.13;;;24.30;93.90;;;;;;5044224;28;20661;-69
2022/07/13 08:05:51;;;;;;;5.30;3.93;;;24.30;93.70;;;;;;5045170;28;20209;-70
2022/07/13 08:08:17;;;;;;;4.10;3.53;;;24.30;93.60;;;;;;5044851;28;20202;-70
2022/07/13 08:10:43;;;;;;;5.10;4.00;;;24.30;93.10;;;;;;5045731;28;20210;-69
2022/07/13 08:13:08;;;;;;;5.10;3.70;;;24.20;93.50;;;;;;5043645;28;20674;-69
2022/07/13 08:15:34;;;;;;;5.15;3.72;;;24.20;93.40;;;;;;5045331;28;20215;-69
2022/07/13 08:18:00;;;;;;;4.85;3.75;;;24.40;93.00;;;;;;5044137;28;20202;-70
2022/07/13 08:20:26;;;;;;;4.88;4.25;;;24.30;93.20;;;;;;5045144;28;20222;-70
2022/07/13 08:22:52;;;;;;;5.75;3.58;;;24.70;92.90;;;;;;5043694;28;20235;-70
2022/07/13 08:25:18;;;;;;;6.47;3.88;;;24.70;92.30;;;;;;5045746;28;20190;-71
2022/07/13 08:27:44;;;;;;;4.13;3.58;;;24.80;92.40;;;;;;5043399;28;20209;-76
2022/07/13 08:30:13;;;;;;;7.47;4.03;;;25.00;91.70;;;;;;5045342;28;20190;-70
2022/07/13 08:32:39;;;;;;;4.60;3.95;;;25.20;91.20;;;;;;5043668;28;20206;-69
2022/07/13 08:40:34;;;;;;;4.85;3.28;;;25.60;90.30;;;;;;5043781;28;20190;-71
2022/07/13 08:43:00;;;;;;;6.07;4.28;;;25.90;89.20;;;;;;5041781;28;20215;-71
2022/07/13 08:45:26;;;;;;;9.27;3.42;;;25.60;89.70;;;;;;5044852;28;20885;-69
2022/07/13 08:47:52;;;;;;;7.57;4.45;;;25.70;88.90;;;;;;5042745;28;20564;-69
2022/07/13 08:50:33;;;;;;;6.53;4.10;;;25.70;88.80;;;;;;5044683;28;20214;-69
2022/07/13 08:53:00;;;;;;;6.60;3.28;;;25.70;88.40;;;;;;5033172;28;20233;-70
2022/07/13 08:55:26;;;;;;;4.20;3.33;;;25.80;88.20;;;;;;5027141;28;20203;-69
2022/07/13 08:57:52;;;;;;;4.88;3.50;;;26.20;87.20;;;;;;5043341;28;20366;-68
2022/07/13 09:00:21;;;;;;;4.43;3.47;;;26.30;86.60;;;;;;5045357;28;20294;-70
2022/07/13 09:02:49;;;;;;;3.63;2.85;;;26.70;86.10;;;;;;5043396;28;20209;-68
2022/07/13 09:05:19;;;;;;;5.05;3.97;;;26.70;84.80;;;;;;5045424;28;20206;-69
2022/07/13 09:08:05;;;;;;;4.20;3.08;;;26.70;84.00;;;;;;5043301;28;20282;-69
2022/07/13 09:10:31;;;;;;;4.35;3.40;;;26.80;84.50;;;;;;5039325;28;20191;-69
2022/07/13 09:12:56;;;;;;;7.00;4.20;;;26.70;83.00;;;;;;5043317;28;20198;-69
2022/07/13 09:15:22;;;;;;;5.45;4.15;;;26.60;82.90;;;;;;5044555;28;20755;-68
2022/07/13 09:17:47;;;;;;;4.55;3.38;;;26.50;83.60;;;;;;5042912;28;20192;-70
2022/07/13 09:20:13;;;;;;;5.47;3.28;;;26.70;84.00;;;;;;5054069;28;20225;-77
2022/07/13 09:22:45;;;;;;;4.03;3.42;;;26.70;83.30;;;;;;5048545;28;20209;-76
2022/07/13 09:25:14;;;;;;;4.93;3.20;;;26.60;83.40;;;;;;5053911;28;20213;-83
2022/07/13 09:27:50;;;;;;;3.65;3.25;;;26.90;82.10;;;;;;5047537;28;20290;-76
2022/07/13 09:30:26;;;;;;;5.35;3.58;;;26.90;81.60;;;;;;5045165;28;20186;-74
2022/07/13 09:32:57;;;;;;;4.68;3.38;;;26.90;81.30;;;;;;5041540;28;20195;-73
2022/07/13 09:35:43;;;;;;;3.80;3.05;;;26.80;80.30;;;;;;5035983;28;20212;-83
2022/07/13 09:38:34;;;;;;;5.30;3.00;;;27.20;79.80;;;;;;5049379;28;20476;-75
2022/07/13 09:41:15;;;;;;;5.30;3.00;;;27.60;79.90;;;;;;5025018;28;20193;-73
2022/07/13 09:47:06;;;;;;;4.88;4.28;;;27.20;79.90;;;;;;5031409;28;20259;-73
2022/07/13 09:49:41;;;;;;;4.03;3.13;;;27.50;78.40;;;;;;5045421;28;20197;-76
2022/07/13 09:52:10;;;;;;;12.27;7.13;;;27.70;78.10;;;;;;5042077;28;20571;-74
2022/07/13 09:54:40;;;;;;;3.33;2.83;;;27.90;77.10;;;;;;5044774;28;20209;-79
2022/07/13 09:57:10;;;;;;;14.98;7.70;;;28.00;79.50;;;;;;5034366;28;20659;-77
2022/07/13 09:59:36;;;;;;;4.88;4.07;;;28.10;76.60;;;;;;5049234;28;20196;-79
2022/07/13 10:02:03;;;;;;;8.52;3.85;;;28.10;75.60;;;;;;5047164;28;20281;-80
2022/07/13 10:04:30;;;;;;;5.32;3.85;;;27.90;75.30;;;;;;5049448;28;20185;-85
2022/07/13 10:06:56;;;;;;;7.38;5.10;;;27.80;75.20;;;;;;5050289;28;20375;-85
2022/07/13 10:09:29;;;;;;;6.70;3.53;;;27.60;74.90;;;;;;5047864;28;20856;-82
2022/07/13 10:11:56;;;;;;;6.10;4.22;;;27.80;74.30;;;;;;5047185;28;20183;-76
2022/07/13 10:14:22;;;;;;;9.00;3.53;;;28.00;74.10;;;;;;5047418;28;20246;-76
2022/07/13 10:16:49;;;;;;;6.78;4.57;;;28.00;73.80;;;;;;5051702;28;20192;-75
2022/07/13 10:19:15;;;;;;;4.82;2.97;;;28.00;73.70;;;;;;5054701;28;20320;-75
2022/07/13 10:21:54;;;;;;;5.57;3.65;;;28.20;73.00;;;;;;5041126;28;20198;-73
2022/07/13 10:24:20;;;;;;;7.55;4.72;;;28.20;72.70;;;;;;5059073;28;20200;-73
2022/07/13 10:26:47;;;;;;;6.80;4.40;;;28.10;72.50;;;;;;5055060;28;20197;-74
2022/07/13 10:29:15;;;;;;;6.35;4.38;;;28.70;71.80;;;;;;5056830;28;20231;-80
2022/07/13 10:31:41;;;;;;;12.10;6.53;;;28.70;70.90;;;;;;5042387;28;20190;-79
2022/07/13 10:34:09;;;;;;;8.60;4.55;;;28.50;70.90;;;;;;5052804;28;20218;-85
2022/07/13 10:36:50;;;;;;;8.40;4.93;;;28.20;71.90;;;;;;5047182;28;20231;-76
2022/07/13 10:39:17;;;;;;;5.28;3.45;;;28.70;71.60;;;;;;5045742;28;20252;-76
2022/07/13 10:42:02;;;;;;;5.68;3.50;;;28.90;70.30;;;;;;5048007;28;20219;-87
2022/07/13 10:44:36;;;;;;;6.72;3.63;;;29.30;66.40;;;;;;5050632;28;20210;-81
2022/07/13 10:47:03;;;;;;;9.13;3.95;;;29.30;66.30;;;;;;5046531;28;20193;-82
2022/07/13 10:49:35;;;;;;;5.40;3.03;;;29.10;66.40;;;;;;5045885;28;20242;-87
2022/07/13 10:52:19;;;;;;;7.22;3.70;;;29.10;64.00;;;;;;5048892;28;20202;-80
2022/07/13 10:55:09;;;;;;;5.97;4.13;;;28.90;59.80;;;;;;5035627;28;20214;-82
2022/07/13 10:57:37;;;;;;;9.15;4.38;;;28.70;60.90;;;;;;5038761;28;20210;-81
2022/07/13 11:00:19;;;;;;;8.05;4.78;;;28.60;63.00;;;;;;5046603;28;20519;-80
2022/07/13 11:02:53;;;;;;;8.32;4.78;;;28.30;64.90;;;;;;5039546;28;20198;-81
2022/07/13 11:05:26;;;;;;;7.05;4.38;;;28.30;63.50;;;;;;5045992;28;20654;-79
2022/07/13 11:07:53;;;;;;;8.57;4.68;;;28.30;63.00;;;;;;5036951;28;20242;-80
2022/07/13 11:10:24;;;;;;;9.73;5.53;;;28.20;62.90;;;;;;5046170;28;20178;-81
2022/07/13 11:13:03;;;;;;;9.90;4.82;;;28.10;63.80;;;;;;5045066;28;20225;-80
2022/07/13 11:15:48;;;;;;;6.40;4.25;;;28.40;64.60;;;;;;5047407;28;20219;-81
2022/07/13 11:18:22;;;;;;;7.68;4.00;;;28.60;64.30;;;;;;5045754;28;20298;-81
2022/07/13 11:21:19;;;;;;;5.20;3.58;;;28.40;64.60;;;;;;5046769;28;20278;-81
2022/07/13 11:26:37;;;;;;;7.20;4.07;;;28.00;65.50;;;;;;5036455;28;20263;-81
2022/07/13 11:29:39;;;;;;;9.02;4.50;;;28.10;66.10;;;;;;5039334;28;20316;-81
2022/07/13 11:32:06;;;;;;;7.30;4.45;;;28.00;66.30;;;;;;5045592;28;20193;-81
2022/07/13 11:34:31;;;;;;;5.90;4.18;;;28.00;66.60;;;;;;5044581;28;20213;-82
2022/07/13 11:37:00;;;;;;;10.80;4.10;;;27.90;66.60;;;;;;5046613;28;20249;-82
2022/07/13 11:39:28;;;;;;;9.73;3.95;;;27.90;66.50;;;;;;5044943;28;20198;-82
2022/07/13 11:41:56;;;;;;;10.27;5.35;;;27.90;66.60;;;;;;5047432;28;20268;-82
2022/07/13 11:44:29;;;;;;;9.55;5.20;;;27.90;66.30;;;;;;5045516;28;20207;-82
2022/07/13 11:46:56;;;;;;;13.60;6.35;;;28.10;65.90;;;;;;5018122;28;20190;-81
2022/07/13 11:49:22;;;;;;;8.57;4.75;;;28.20;65.50;;;;;;5045176;28;20216;-81
2022/07/13 11:51:48;;;;;;;10.45;5.38;;;28.40;65.80;;;;;;5047203;28;20187;-81
2022/07/13 11:54:16;;;;;;;6.97;4.40;;;28.80;65.30;;;;;;5045846;28;20786;-81
2022/07/13 11:56:53;;;;;;;12.13;6.07;;;28.70;65.70;;;;;;5046902;28;20195;-81
2022/07/13 11:59:46;;;;;;;11.13;5.68;;;28.70;64.90;;;;;;5041205;28;20187;-81
2022/07/13 12:02:14;;;;;;;8.55;4.32;;;29.30;63.50;;;;;;5038309;28;20636;-82
2022/07/13 12:04:45;;;;;;;6.97;3.95;;;29.80;63.10;;;;;;5045121;28;20211;-81
2022/07/13 12:07:23;;;;;;;8.20;4.70;;;30.20;62.00;;;;;;5046631;28;20230;-81
2022/07/13 12:09:53;;;;;;;11.18;4.95;;;30.70;61.60;;;;;;5044654;28;20792;-81
2022/07/13 12:12:40;;;;;;;7.45;4.43;;;30.50;59.50;;;;;;5047387;28;20198;-82
2022/07/13 12:15:12;;;;;;;20.10;7.22;;;31.30;59.50;;;;;;5037070;28;20253;-81
2022/07/13 12:18:05;;;;;;;45.05;17.45;;;31.50;56.70;;;;;;5044909;28;20191;-81
2022/07/13 12:20:35;;;;;;;17.05;6.55;;;31.40;56.40;;;;;;5046365;28;20260;-81
2022/07/13 12:23:04;;;;;;;17.45;6.68;;;31.90;56.70;;;;;;5039224;28;20202;-82
2022/07/13 12:25:35;;;;;;;13.45;6.18;;;32.30;55.90;;;;;;5050671;28;20186;-81
2022/07/13 12:28:11;;;;;;;14.15;5.85;;;32.50;54.60;;;;;;5044248;28;20195;-82
2022/07/13 12:30:55;;;;;;;22.77;8.27;;;31.90;54.60;;;;;;5049228;28;20170;-84
2022/07/13 12:33:22;;;;;;;13.98;5.35;;;31.00;54.10;;;;;;5042458;28;20209;-84
2022/07/13 12:36:02;;;;;;;9.82;4.05;;;30.60;54.40;;;;;;5057250;28;20210;-83
2022/07/13 12:38:27;;;;;;;16.42;6.13;;;30.50;53.60;;;;;;5039618;28;20615;-84
2022/07/13 12:40:55;;;;;;;15.95;5.72;;;30.00;53.20;;;;;;5054237;28;20660;-83
2022/07/13 12:43:24;;;;;;;8.98;3.95;;;29.90;52.50;;;;;;5052819;28;20195;-85
2022/07/13 12:45:52;;;;;;;13.75;5.70;;;29.60;52.20;;;;;;5048354;28;20186;-82
2022/07/13 12:48:20;;;;;;;12.85;4.78;;;29.40;51.90;;;;;;5047943;28;20286;-84
2022/07/13 12:51:05;;;;;;;14.80;5.45;;;29.30;51.90;;;;;;5058762;28;20201;-81
2022/07/13 12:53:48;;;;;;;12.55;5.95;;;29.30;51.50;;;;;;5046355;28;20209;-83
2022/07/13 12:56:15;;;;;;;18.75;6.82;;;29.20;51.50;;;;;;5046834;28;20238;-81
2022/07/13 12:58:52;;;;;;;14.25;5.47;;;29.20;51.40;;;;;;5044083;28;20290;-79